createdAt,value
2022-08-17T00:00:34.767Z,25.5
2022-08-17T00:01:53.539Z,25.18
2022-08-17T00:02:54.542Z,25.38
2022-08-17T00:03:55.266Z,25.41
2022-08-17T00:04:56.011Z,25.3
2022-08-17T00:05:56.767Z,25.11
2022-08-17T00:06:57.587Z,25.03
2022-08-17T00:07:58.351Z,25.07
2022-08-17T00:08:59.052Z,25.04
2022-08-17T00:09:59.855Z,24.98
2022-08-17T00:11:00.568Z,24.86
2022-08-17T00:12:03.845Z,24.82
2022-08-17T00:13:45.561Z,24.87
2022-08-17T00:14:46.312Z,24.82
2022-08-17T00:15:47.027Z,24.79
2022-08-17T00:16:50.587Z,24.68
2022-08-17T00:17:58.614Z,24.51
2022-08-17T00:19:06.434Z,24.43
2022-08-17T00:20:09.581Z,24.33
2022-08-17T00:21:10.816Z,24.42
2022-08-17T00:22:31.218Z,24.34
2022-08-17T00:23:37.658Z,24.4
2022-08-17T00:24:38.358Z,24.41
2022-08-17T00:25:39.067Z,24.44
2022-08-17T00:26:44.921Z,24.54
2022-08-17T00:27:46.289Z,24.55
2022-08-17T00:28:46.984Z,24.62
2022-08-17T00:29:47.689Z,24.44
2022-08-17T00:30:48.714Z,24.44
2022-08-17T00:31:54.541Z,24.49
2022-08-17T00:33:10.651Z,24.58
2022-08-17T00:34:17.841Z,24.54
2022-08-17T00:35:18.610Z,24.47
2022-08-17T00:36:19.338Z,24.4
2022-08-17T00:37:20.070Z,24.29
2022-08-17T00:38:20.798Z,24.31
2022-08-17T00:39:21.515Z,24.33
2022-08-17T00:40:22.387Z,24.34
2022-08-17T00:41:25.602Z,24.35
2022-08-17T00:42:30.890Z,24.43
2022-08-17T00:43:32.168Z,24.37
2022-08-17T00:44:33.060Z,24.35
2022-08-17T00:45:33.775Z,24.42
2022-08-17T00:46:34.472Z,24.48
2022-08-17T00:47:35.231Z,24.38
2022-08-17T00:48:35.941Z,24.47
2022-08-17T00:49:36.693Z,24.57
2022-08-17T00:50:37.437Z,24.56
2022-08-17T00:51:38.146Z,24.47
2022-08-17T00:52:38.907Z,24.43
2022-08-17T00:53:39.607Z,24.4
2022-08-17T00:54:41.063Z,24.36
2022-08-17T00:55:43.424Z,24.5
2022-08-17T00:56:44.240Z,24.29
2022-08-17T00:57:44.943Z,24.35
2022-08-17T00:58:45.656Z,24.4
2022-08-17T00:59:46.463Z,24.43
2022-08-17T06:05:31.151Z,24.63
2022-08-17T06:06:31.858Z,24.6
2022-08-17T06:07:32.590Z,24.65
2022-08-17T06:08:33.313Z,24.86
2022-08-17T06:09:34.186Z,24.85
2022-08-17T06:10:36.276Z,24.84
2022-08-17T06:11:37.285Z,25.03
2022-08-17T06:12:39.864Z,25.17
2022-08-17T06:13:40.615Z,25.13
2022-08-17T06:14:41.345Z,25.02
2022-08-17T06:15:42.052Z,25.09
2022-08-17T06:16:42.778Z,24.94
2022-08-17T06:17:43.484Z,24.73
2022-08-17T06:18:44.218Z,24.53
2022-08-17T06:19:44.914Z,24.31
2022-08-17T06:20:45.642Z,24.33
2022-08-17T06:21:46.419Z,24.16
2022-08-17T06:22:47.269Z,24.2
2022-08-17T06:23:48.122Z,24.08
2022-08-17T06:24:48.864Z,24.07
2022-08-17T06:25:49.559Z,24.05
2022-08-17T06:26:50.286Z,24.02
2022-08-17T06:27:53.438Z,24.07
2022-08-17T06:28:54.928Z,24.24
2022-08-17T06:29:55.716Z,24.22
2022-08-17T06:30:58.715Z,24.1
2022-08-17T06:32:02.229Z,23.87
2022-08-17T06:33:02.933Z,23.81
2022-08-17T06:34:03.620Z,23.91
2022-08-17T06:35:04.343Z,23.76
2022-08-17T06:36:09.422Z,23.76
2022-08-17T06:37:10.817Z,23.86
2022-08-17T06:38:17.339Z,23.84
2022-08-17T06:39:39.723Z,23.75
2022-08-17T06:40:40.892Z,23.73
2022-08-17T06:41:41.664Z,23.67
2022-08-17T06:42:54.541Z,23.63
2022-08-17T06:44:08.326Z,23.78
2022-08-17T06:45:09.055Z,23.92
2022-08-17T06:46:09.805Z,24.01
2022-08-17T06:47:10.530Z,24.07
2022-08-17T06:48:11.239Z,24.17
2022-08-17T06:49:11.942Z,24.17
2022-08-17T06:50:12.661Z,24.26
2022-08-17T06:51:13.388Z,24.21
2022-08-17T06:52:20.473Z,24.32
2022-08-17T06:53:48.651Z,24.44
2022-08-17T06:54:49.392Z,24.53
2022-08-17T06:55:50.112Z,24.4
2022-08-17T06:56:52.860Z,24.58
2022-08-17T06:57:56.376Z,24.72
2022-08-17T06:58:57.095Z,24.71
2022-08-17T06:59:57.851Z,24.72
2022-08-17T07:00:58.886Z,24.88
2022-08-17T07:02:00.432Z,24.93
2022-08-17T07:03:01.188Z,24.76
2022-08-17T07:04:03.912Z,24.79
2022-08-17T07:05:13.117Z,24.78
2022-08-17T07:06:13.869Z,24.72
2022-08-17T07:07:14.571Z,24.75
2022-08-17T07:08:15.278Z,24.77
2022-08-17T07:09:16.003Z,24.88
2022-08-17T07:10:16.706Z,24.8
2022-08-17T07:11:17.412Z,24.8
2022-08-17T07:12:18.147Z,24.87
2022-08-17T07:13:18.846Z,25.05
2022-08-17T07:14:19.595Z,25.01
2022-08-17T07:15:20.315Z,25.05
2022-08-17T07:16:21.050Z,25.11
2022-08-17T07:17:21.760Z,25.23
2022-08-17T07:18:49.220Z,25.38
2022-08-17T07:19:50.544Z,25.47
2022-08-17T07:20:56.199Z,25.54
2022-08-17T07:21:56.918Z,25.41
2022-08-17T07:22:59.946Z,25.64
2022-08-17T07:24:06.513Z,25.8
2022-08-17T07:25:07.219Z,25.77
2022-08-17T07:26:07.976Z,25.73
2022-08-17T07:27:08.734Z,25.9
2022-08-17T07:28:09.423Z,26.02
2022-08-17T07:29:10.140Z,26.13
2022-08-17T07:30:11.295Z,26.08
2022-08-17T07:31:12.360Z,25.99
2022-08-17T07:32:13.107Z,25.97
2022-08-17T07:33:13.809Z,26.06
2022-08-17T07:34:14.553Z,26.11
2022-08-17T07:35:15.641Z,26.05
2022-08-17T07:36:16.784Z,25.95
2022-08-17T07:37:17.489Z,25.98
2022-08-17T07:38:24.456Z,26.15
2022-08-17T07:39:28.028Z,26.37
2022-08-17T07:40:29.304Z,26.46
2022-08-17T07:41:53.675Z,26.53
2022-08-17T07:43:00.161Z,26.6
2022-08-17T07:44:03.831Z,26.61
2022-08-17T07:45:04.549Z,26.67
2022-08-17T07:46:05.290Z,26.82
2022-08-17T07:47:06.020Z,26.91
2022-08-17T07:48:06.747Z,27.05
2022-08-17T07:49:07.630Z,27.14
2022-08-17T07:50:08.471Z,27.27
2022-08-17T07:51:09.170Z,27.02
2022-08-17T07:52:13.467Z,27.19
2022-08-17T07:53:53.156Z,27.45
2022-08-17T07:54:53.882Z,27.45
2022-08-17T07:55:54.584Z,27.44
2022-08-17T07:56:55.336Z,27.4
2022-08-17T07:57:56.047Z,27.33
2022-08-17T07:58:56.756Z,27.46
2022-08-17T07:59:57.504Z,27.45
2022-08-17T08:00:58.621Z,27.35
2022-08-17T08:02:00.795Z,27.29
2022-08-17T08:03:02.954Z,27.42
2022-08-17T08:04:03.692Z,27.52
2022-08-17T08:05:08.887Z,27.56
2022-08-17T08:06:10.936Z,27.54
2022-08-17T08:07:11.666Z,27.51
2022-08-17T08:08:12.375Z,27.56
2022-08-17T08:09:17.634Z,27.6
2022-08-17T08:10:18.360Z,27.66
2022-08-17T08:11:19.087Z,27.62
2022-08-17T08:12:19.824Z,27.56
2022-08-17T08:13:21.867Z,27.6
2022-08-17T08:14:22.566Z,27.51
2022-08-17T08:15:29.662Z,27.59
2022-08-17T08:16:30.365Z,27.42
2022-08-17T08:17:31.159Z,27.39
2022-08-17T08:18:38.857Z,27.37
2022-08-17T08:19:59.177Z,27.37
2022-08-17T08:21:00.005Z,27.38
2022-08-17T08:22:01.171Z,27.46
2022-08-17T08:23:03.425Z,27.49
2022-08-17T08:24:04.122Z,27.55
2022-08-17T08:25:04.859Z,27.62
2022-08-17T08:26:05.594Z,27.63
2022-08-17T08:27:06.579Z,27.59
2022-08-17T08:28:07.314Z,27.55
2022-08-17T08:29:08.035Z,27.59
2022-08-17T08:30:08.895Z,27.53
2022-08-17T08:31:09.920Z,27.41
2022-08-17T08:32:10.828Z,27.47
2022-08-17T08:33:11.520Z,27.46
2022-08-17T08:34:44.935Z,27.51
2022-08-17T08:36:04.730Z,27.4
2022-08-17T08:37:14.486Z,27.4
2022-08-17T08:38:36.166Z,27.42
2022-08-17T08:39:36.925Z,27.49
2022-08-17T08:40:37.910Z,27.5
2022-08-17T08:41:38.633Z,27.43
2022-08-17T08:42:42.878Z,27.53
2022-08-17T08:43:43.608Z,27.53
2022-08-17T08:44:59.436Z,27.54
2022-08-17T08:46:06.344Z,27.6
2022-08-17T08:47:07.172Z,27.69
2022-08-17T08:48:12.873Z,27.59
2022-08-17T08:50:04.233Z,27.49
2022-08-17T08:51:06.774Z,27.48
2022-08-17T08:52:11.387Z,26.96
2022-08-17T08:53:12.093Z,27.17
2022-08-17T08:54:12.807Z,27.31
2022-08-17T08:55:13.541Z,27.38
2022-08-17T08:56:14.301Z,27.29
2022-08-17T08:57:26.626Z,27.01
2022-08-17T08:58:41.078Z,26.58
2022-08-17T08:59:44.518Z,26.87
2022-08-17T09:00:59.212Z,27.09
2022-08-17T09:02:00.093Z,26.98
2022-08-17T09:03:00.798Z,27.03
2022-08-17T09:04:18.140Z,27.2
2022-08-17T09:05:26.621Z,27.27
2022-08-17T09:06:28.785Z,27.39
2022-08-17T09:07:40.890Z,27.46
2022-08-17T09:08:41.812Z,27.51
2022-08-17T09:09:42.549Z,27.52
2022-08-17T09:10:43.306Z,27.62
2022-08-17T10:22:00.743Z,29.64
2022-08-17T10:23:38.433Z,30.01
2022-08-17T10:24:39.148Z,29.98
2022-08-17T10:25:58.201Z,29.94
2022-08-17T10:26:58.940Z,29.63
2022-08-17T10:27:59.711Z,29.38
2022-08-17T10:29:00.424Z,29.19
2022-08-17T10:30:01.116Z,28.95
2022-08-17T10:31:30.721Z,29.02
2022-08-17T10:32:36.973Z,28.77
2022-08-17T10:33:37.723Z,28.65
2022-08-17T10:34:14.689Z,28.75
2022-08-17T10:35:15.429Z,28.77
2022-08-17T10:36:16.191Z,28.76
2022-08-17T10:37:16.924Z,28.73
2022-08-17T10:38:17.748Z,28.71
2022-08-17T10:39:25.482Z,28.41
2022-08-17T10:40:26.676Z,28.51
2022-08-17T10:41:27.702Z,28.47
2022-08-17T10:42:30.187Z,28.42
2022-08-17T10:43:34.091Z,28.41
2022-08-17T10:44:37.788Z,28.48
2022-08-17T10:45:42.265Z,28.43
2022-08-17T10:46:43.010Z,28.27
2022-08-17T10:47:55.109Z,28.29
2022-08-17T10:49:05.337Z,28.19
2022-08-17T10:50:06.089Z,28.21
2022-08-17T10:51:06.799Z,28.38
2022-08-17T10:52:07.515Z,28.41
2022-08-17T10:53:08.245Z,28.37
2022-08-17T10:54:08.978Z,28.29
2022-08-17T10:55:09.731Z,28.08
2022-08-17T10:56:10.438Z,28.03
2022-08-17T10:57:11.323Z,27.75
2022-08-17T10:58:12.111Z,27.86
2022-08-17T10:59:12.809Z,27.86
2022-08-17T11:00:13.534Z,28.07
2022-08-17T11:01:14.347Z,28.17
2022-08-17T11:02:15.560Z,28.28
2022-08-17T11:03:16.295Z,28.46
2022-08-17T11:04:17.080Z,28.29
2022-08-17T11:05:18.865Z,28.34
2022-08-17T11:06:19.598Z,28.39
2022-08-17T11:07:20.332Z,28.42
2022-08-17T11:08:21.134Z,28.43
2022-08-17T11:09:26.151Z,28.32
2022-08-17T11:10:26.961Z,28.29
2022-08-17T11:11:27.657Z,28.29
2022-08-17T11:12:28.379Z,28.49
2022-08-17T11:13:29.103Z,28.59
2022-08-17T11:14:29.844Z,28.68
2022-08-17T11:15:30.831Z,28.67
2022-08-17T11:16:32.696Z,28.69
2022-08-17T11:17:33.437Z,28.81
2022-08-17T11:18:35.182Z,28.93
2022-08-17T11:19:37.168Z,29.18
2022-08-17T11:20:37.882Z,29.33
2022-08-17T11:21:38.580Z,29.6
2022-08-17T11:22:39.310Z,29.75
2022-08-17T11:23:40.043Z,29.79
2022-08-17T11:24:43.331Z,29.84
2022-08-17T11:25:46.463Z,29.92
2022-08-17T11:26:47.201Z,29.93
2022-08-17T11:27:47.947Z,29.79
2022-08-17T11:28:48.703Z,29.52
2022-08-17T11:29:56.936Z,29.54
2022-08-17T11:31:03.671Z,28.8
2022-08-17T11:32:08.103Z,28.86
2022-08-17T11:33:12.037Z,28.65
2022-08-17T11:34:13.130Z,28.41
2022-08-17T11:35:13.873Z,28.29
2022-08-17T11:36:14.586Z,28.19
2022-08-17T11:37:15.349Z,27.94
2022-08-17T11:38:16.665Z,27.79
2022-08-17T11:39:17.747Z,27.76
2022-08-17T11:40:18.609Z,27.92
2022-08-17T11:41:20.024Z,27.77
2022-08-17T11:42:20.768Z,27.81
2022-08-17T11:43:21.543Z,27.55
2022-08-17T11:44:26.534Z,27.52
2022-08-17T11:45:32.011Z,27.07
2022-08-17T11:46:33.996Z,26.93
2022-08-17T11:47:34.716Z,26.82
2022-08-17T11:48:35.716Z,26.46
2022-08-17T11:49:37.112Z,26.63
2022-08-17T11:50:37.828Z,26.86
2022-08-17T11:51:38.552Z,26.86
2022-08-17T11:52:39.280Z,26.83
2022-08-17T11:53:39.985Z,26.96
2022-08-17T11:54:40.727Z,27.04
2022-08-17T11:55:44.793Z,27.09
2022-08-17T11:56:45.841Z,27.04
2022-08-17T11:57:46.606Z,27.19
2022-08-17T11:58:47.697Z,27.19
2022-08-17T11:59:48.440Z,27.17
2022-08-17T12:00:49.159Z,27.22
2022-08-17T12:01:49.879Z,27.3
2022-08-17T12:02:50.632Z,27.36
2022-08-17T12:03:54.543Z,27.15
2022-08-17T12:04:56.947Z,26.76
2022-08-17T12:05:57.890Z,26.69
2022-08-17T12:06:58.721Z,26.56
2022-08-17T12:07:59.453Z,26.59
2022-08-17T12:09:01.235Z,26.48
2022-08-17T12:10:01.950Z,26.7
2022-08-17T12:11:02.673Z,26.95
2022-08-17T12:12:12.326Z,27.09
2022-08-17T12:13:15.338Z,27.15
2022-08-17T12:14:19.250Z,27.21
2022-08-17T12:16:09.533Z,27.4
2022-08-17T12:17:10.256Z,27.47
2022-08-17T12:18:11.568Z,27.47
2022-08-17T12:19:12.280Z,27.53
2022-08-17T12:20:13.869Z,27.62
2022-08-17T12:21:15.824Z,27.6
2022-08-17T12:22:20.724Z,27.29
2022-08-17T12:23:21.439Z,27.37
2022-08-17T12:24:22.134Z,27.57
2022-08-17T12:25:22.843Z,27.71
2022-08-17T12:26:23.568Z,27.73
2022-08-17T12:27:43.242Z,27.84
2022-08-17T12:29:09.286Z,27.73
2022-08-17T12:30:40.116Z,27.7
2022-08-17T12:31:40.884Z,27.79
2022-08-17T12:32:41.645Z,28.03
2022-08-17T12:33:42.367Z,28.05
2022-08-17T12:34:43.082Z,28.22
2022-08-17T12:35:43.801Z,28.26
2022-08-17T12:36:44.543Z,28.4
2022-08-17T12:37:45.267Z,28.53
2022-08-17T12:38:45.973Z,28.49
2022-08-17T12:39:46.730Z,28.69
2022-08-17T12:40:47.782Z,28.69
2022-08-17T12:41:50.263Z,28.6
2022-08-17T12:43:04.317Z,28.52
2022-08-17T12:44:05.039Z,28.6
2022-08-17T12:45:05.747Z,28.84
2022-08-17T12:46:10.642Z,29.09
2022-08-17T12:47:21.218Z,29.23
2022-08-17T12:48:24.023Z,29.32
2022-08-17T12:49:24.760Z,29.29
2022-08-17T12:50:29.325Z,28.5
2022-08-17T12:51:31.040Z,28.61
2022-08-17T12:52:31.753Z,28.59
2022-08-17T12:53:32.477Z,28.54
2022-08-17T12:54:33.191Z,28.73
2022-08-17T12:55:34.105Z,28.56
2022-08-17T12:56:34.877Z,28.81
2022-08-17T12:57:35.599Z,28.98
2022-08-17T12:58:36.316Z,28.71
2022-08-17T12:59:37.073Z,28.62
2022-08-17T13:00:37.807Z,29.18
2022-08-17T13:01:38.649Z,29.47
2022-08-17T13:02:39.645Z,29.69
2022-08-17T13:03:40.373Z,29.9
2022-08-17T13:04:41.074Z,30.07
2022-08-17T13:05:41.814Z,30.35
2022-08-17T13:06:42.563Z,30.34
2022-08-17T13:07:43.413Z,30.52
2022-08-17T13:08:44.709Z,30.59
2022-08-17T13:09:45.449Z,30.6
2022-08-17T13:10:46.193Z,30.69
2022-08-17T13:11:52.898Z,30.76
2022-08-17T13:12:53.634Z,30.82
2022-08-17T13:13:54.378Z,30.88
2022-08-17T13:14:55.092Z,31.08
2022-08-17T13:15:55.882Z,31.31
2022-08-17T13:16:56.565Z,31.42
2022-08-17T13:17:57.272Z,31.63
2022-08-17T13:18:58.001Z,31.62
2022-08-17T13:19:58.770Z,31.53
2022-08-17T13:20:59.511Z,31.67
2022-08-17T13:22:00.277Z,31.61
2022-08-17T13:23:01.009Z,31.48
2022-08-17T13:24:02.528Z,31.84
2022-08-17T13:25:03.279Z,31.96
2022-08-17T13:26:04.006Z,32.13
2022-08-17T13:27:07.955Z,32.14
2022-08-17T13:28:09.529Z,32.19
2022-08-17T13:29:10.275Z,32.22
2022-08-17T13:30:11.033Z,32.33
2022-08-17T13:31:11.771Z,32.08
2022-08-17T13:32:13.299Z,31.94
2022-08-17T13:33:14.782Z,32.16
2022-08-17T13:34:27.165Z,32.17
2022-08-17T13:35:32.938Z,31.81
2022-08-17T13:36:42.139Z,31.77
2022-08-17T13:37:51.567Z,31.76
2022-08-17T13:38:53.092Z,31.85
2022-08-17T13:39:53.923Z,31.75
2022-08-17T13:40:55.173Z,31.95
2022-08-17T13:41:55.892Z,31.93
2022-08-17T13:42:56.711Z,31.46
2022-08-17T13:43:57.443Z,31.06
2022-08-17T13:44:58.157Z,31.36
2022-08-17T13:45:58.869Z,31.29
2022-08-17T13:46:59.599Z,31.44
2022-08-17T13:48:00.308Z,31.03
2022-08-17T13:49:01.047Z,31.4
2022-08-17T13:50:01.858Z,30.9
2022-08-17T13:51:04.048Z,31.46
2022-08-17T13:52:04.811Z,32
2022-08-17T13:53:06.104Z,31.85
2022-08-17T13:54:06.832Z,32.16
2022-08-17T13:55:07.585Z,31.18
2022-08-17T13:56:33.624Z,31.78
2022-08-17T13:57:41.079Z,31.07
2022-08-17T13:58:41.891Z,31.26
2022-08-17T13:59:54.043Z,32.08
2022-08-17T14:01:00.859Z,32.64
2022-08-17T14:02:01.623Z,33.05
2022-08-17T14:03:06.934Z,33.34
2022-08-17T14:04:07.648Z,33.23
2022-08-17T14:05:10.680Z,33.46
2022-08-17T14:06:22.165Z,33.78
2022-08-17T14:07:56.266Z,34.04
2022-08-17T14:08:56.994Z,34.11
2022-08-17T14:09:57.747Z,34.26
2022-08-17T14:10:58.554Z,34.52
2022-08-17T14:11:59.302Z,34.28
2022-08-17T14:13:00.020Z,34.11
2022-08-17T14:14:00.912Z,33.99
2022-08-17T14:15:01.616Z,34.11
2022-08-17T14:16:02.359Z,34.03
2022-08-17T14:17:03.113Z,33.55
2022-08-17T14:18:03.827Z,33.53
2022-08-17T14:19:04.587Z,32.66
2022-08-17T14:20:05.301Z,32.95
2022-08-17T14:21:06.032Z,32.98
2022-08-17T14:22:06.754Z,32.93
2022-08-17T14:23:07.479Z,32.82
2022-08-17T14:24:08.195Z,32.79
2022-08-17T14:25:10.342Z,32.57
2022-08-17T14:26:11.532Z,32.81
2022-08-17T14:27:12.323Z,32.73
2022-08-17T14:28:13.083Z,32.79
2022-08-17T14:29:15.634Z,32.86
2022-08-17T14:30:16.484Z,32.78
2022-08-17T14:31:17.229Z,32.65
2022-08-17T14:32:17.913Z,32.59
2022-08-17T14:33:18.648Z,32.54
2022-08-17T14:34:19.368Z,32.74
2022-08-17T14:35:20.119Z,32.8
2022-08-17T14:36:20.826Z,32.91
2022-08-17T14:37:21.530Z,33.22
2022-08-17T14:38:22.526Z,33.34
2022-08-17T14:39:23.262Z,33.3
2022-08-17T14:40:23.991Z,33.12
2022-08-17T14:41:24.716Z,32.67
2022-08-17T14:42:25.421Z,31.98
2022-08-17T14:43:26.129Z,31.98
2022-08-17T14:44:26.867Z,32.1
2022-08-17T14:45:30.506Z,32.5
2022-08-17T14:46:34.338Z,32.81
2022-08-17T14:47:35.052Z,32.93
2022-08-17T14:48:35.790Z,32.97
2022-08-17T14:49:36.531Z,32.98
2022-08-17T14:50:37.277Z,32.83
2022-08-17T14:51:38.016Z,32.87
2022-08-17T14:52:45.510Z,32.71
2022-08-17T14:53:46.225Z,32.69
2022-08-17T14:54:47.006Z,32.49
2022-08-17T14:55:47.746Z,32.51
2022-08-17T14:56:49.719Z,32.57
2022-08-17T14:58:35.346Z,32.53
2022-08-17T14:59:39.207Z,32.71
2022-08-17T15:00:39.941Z,32.7
2022-08-17T15:01:40.683Z,32.66
2022-08-17T15:02:41.834Z,32.53
2022-08-17T15:03:42.561Z,32.51
2022-08-17T15:04:45.702Z,32.48
2022-08-17T15:05:46.699Z,32.72
2022-08-17T15:06:47.496Z,32.85
2022-08-17T15:07:48.292Z,32.67
2022-08-17T15:08:49.033Z,32.81
2022-08-17T15:09:49.758Z,32.77
2022-08-17T15:10:51.919Z,32.84
2022-08-17T15:11:55.286Z,32.89
2022-08-17T15:12:56.030Z,32.76
2022-08-17T15:13:56.748Z,32.83
2022-08-17T15:14:57.507Z,32.64
2022-08-17T15:15:58.234Z,32.46
2022-08-17T15:16:58.967Z,32.69
2022-08-17T15:18:00.276Z,32.66
2022-08-17T15:19:02.726Z,32.48
2022-08-17T15:20:03.427Z,32.5
2022-08-17T15:21:04.142Z,32.58
2022-08-17T15:22:04.852Z,32.53
2022-08-17T15:23:05.626Z,32.08
2022-08-17T15:24:06.393Z,32.01
2022-08-17T15:25:07.263Z,31.9
2022-08-17T15:26:07.972Z,31.48
2022-08-17T15:27:08.689Z,31.51
2022-08-17T15:28:09.426Z,31.53
2022-08-17T15:29:10.147Z,31.87
2022-08-17T15:30:10.845Z,32.25
2022-08-17T15:31:11.550Z,31.9
2022-08-17T15:32:12.281Z,32.05
2022-08-17T15:33:12.984Z,31.98
2022-08-17T15:34:16.975Z,31.79
2022-08-17T15:35:17.732Z,32.15
2022-08-17T15:36:18.483Z,32.56
2022-08-17T15:37:19.259Z,32.76
2022-08-17T15:38:19.976Z,32.79
2022-08-17T15:39:20.731Z,32.79
2022-08-17T15:40:21.465Z,32.74
2022-08-17T15:41:22.194Z,32.88
2022-08-17T15:42:22.967Z,33.21
2022-08-17T15:43:27.524Z,33.46
2022-08-17T15:44:30.184Z,33.21
2022-08-17T15:45:35.998Z,33.4
2022-08-17T15:46:36.751Z,33.66
2022-08-17T15:47:37.441Z,33.8
2022-08-17T15:48:38.229Z,33.69
2022-08-17T15:49:39.293Z,33.89
2022-08-17T15:50:40.049Z,33.68
2022-08-17T15:51:40.794Z,33.05
2022-08-17T15:52:41.590Z,32.71
2022-08-17T15:53:42.346Z,32.57
2022-08-17T15:54:45.241Z,32.61
2022-08-17T15:55:47.325Z,32.33
2022-08-17T15:56:48.040Z,32.37
2022-08-17T15:57:48.769Z,32.52
2022-08-17T15:58:49.477Z,32.41
2022-08-17T15:59:50.767Z,32.58
2022-08-17T16:01:14.564Z,31.94
2022-08-17T16:05:02.583Z,32.42
2022-08-17T16:06:10.989Z,32.6
2022-08-17T16:07:11.937Z,32.63
2022-08-17T16:08:15.944Z,32.73
2022-08-17T16:09:22.205Z,32.63
2022-08-17T16:10:22.923Z,32.5
2022-08-17T16:11:36.797Z,32.55
2022-08-17T16:12:37.540Z,32.41
2022-08-17T16:13:38.266Z,32.22
2022-08-17T16:14:38.983Z,32.17
2022-08-17T16:15:39.698Z,32.18
2022-08-17T16:16:40.398Z,32.21
2022-08-17T16:17:41.116Z,31.94
2022-08-17T16:18:41.857Z,31.87
2022-08-17T16:19:42.605Z,31.78
2022-08-17T16:20:43.312Z,31.72
2022-08-17T16:21:44.035Z,31.66
2022-08-17T16:22:44.808Z,31.65
2022-08-17T16:23:45.654Z,31.62
2022-08-17T16:24:57.298Z,31.66
2022-08-17T16:25:58.558Z,31.65
2022-08-17T16:26:59.268Z,31.55
2022-08-17T16:28:00.010Z,31.55
2022-08-17T16:29:00.733Z,31.56
2022-08-17T16:30:01.477Z,31.52
2022-08-17T16:31:02.202Z,31.45
2022-08-17T16:32:02.950Z,31.45
2022-08-17T16:33:03.721Z,31.41
2022-08-17T16:34:16.585Z,31.42
2022-08-17T16:35:19.681Z,31.5
2022-08-17T16:36:20.727Z,31.54
2022-08-17T16:37:21.610Z,31.48
2022-08-17T16:38:22.672Z,31.54
2022-08-17T16:39:23.484Z,31.44
2022-08-17T16:40:24.675Z,31.45
2022-08-17T16:41:25.700Z,31.34
2022-08-17T16:42:26.936Z,31.19
2022-08-17T16:43:28.138Z,30.9
2022-08-17T16:44:29.388Z,31.21
2022-08-17T16:45:30.222Z,31.09
2022-08-17T16:46:31.028Z,31.18
2022-08-17T16:47:31.886Z,31.21
2022-08-17T16:48:32.665Z,30.85
2022-08-17T16:49:38.059Z,30.9
2022-08-17T16:50:42.616Z,31.03
2022-08-17T16:52:05.324Z,30.86
2022-08-17T16:53:08.651Z,30.88
2022-08-17T17:30:58.569Z,32.97
2022-08-17T17:32:03.037Z,33.25
2022-08-17T17:33:03.790Z,33.07
2022-08-17T17:34:04.504Z,32.86
2022-08-17T17:35:05.249Z,32.77
2022-08-17T17:36:05.978Z,32.63
2022-08-17T17:37:06.693Z,32.43
2022-08-17T17:38:07.392Z,32.28
2022-08-17T17:39:08.149Z,32.26
2022-08-17T17:40:09.029Z,32.36
2022-08-17T17:41:10.271Z,32.38
2022-08-17T17:42:11.055Z,32.43
2022-08-17T17:43:35.160Z,32.35
2022-08-17T17:44:41.922Z,32.51
2022-08-17T17:45:42.675Z,32.54
2022-08-17T17:46:43.381Z,32.51
2022-08-17T17:47:44.147Z,32.37
2022-08-17T17:48:48.504Z,32.55
2022-08-17T17:49:56.227Z,32.62
2022-08-17T17:50:56.943Z,32.68
2022-08-17T17:52:09.805Z,32.64
2022-08-17T17:53:22.638Z,32.3
2022-08-17T17:54:44.323Z,32.12
2022-08-17T17:55:45.046Z,31.8
2022-08-17T17:56:45.751Z,31.8
2022-08-17T17:57:46.664Z,31.65
2022-08-17T17:58:47.785Z,31.62
2022-08-17T17:59:48.520Z,31.5
2022-08-17T18:00:49.269Z,31.42
2022-08-17T18:01:50.213Z,31.4
2022-08-17T18:02:52.561Z,31.21
2022-08-17T18:03:54.024Z,31.22
2022-08-17T18:04:54.816Z,31.13
2022-08-17T18:05:55.542Z,31
2022-08-17T18:07:02.026Z,30.96
2022-08-17T18:08:05.921Z,30.96
2022-08-17T18:09:12.095Z,30.88
2022-08-17T18:10:29.929Z,30.75
2022-08-17T18:11:34.876Z,30.79
2022-08-17T18:12:36.140Z,30.85
2022-08-17T18:13:36.883Z,30.7
2022-08-17T18:14:37.999Z,30.6
2022-08-17T18:15:38.735Z,30.49
2022-08-17T18:16:39.459Z,30.47
2022-08-17T18:17:40.226Z,30.42
2022-08-17T18:18:40.936Z,30.42
2022-08-17T18:19:41.663Z,30.45
2022-08-17T18:20:43.623Z,30.38
2022-08-17T18:21:57.117Z,30.46
2022-08-17T18:22:57.813Z,30.4
2022-08-17T18:23:58.550Z,30.38
2022-08-17T18:24:59.255Z,30.35
2022-08-17T18:25:59.968Z,30.18
2022-08-17T18:27:00.725Z,30.27
2022-08-17T18:28:01.442Z,30.19
2022-08-17T18:29:02.168Z,30.14
2022-08-17T18:30:07.212Z,30.08
2022-08-17T18:31:10.306Z,30.03
2022-08-17T18:32:11.032Z,30.13
2022-08-17T18:33:11.769Z,30.02
2022-08-17T18:34:45.731Z,29.89
2022-08-17T18:35:49.551Z,30.02
2022-08-17T18:37:02.364Z,29.91
2022-08-17T18:38:03.114Z,29.76
2022-08-17T18:39:03.827Z,29.71
2022-08-17T18:40:04.535Z,29.7
2022-08-17T18:41:05.782Z,29.62
2022-08-17T18:42:06.481Z,29.6
2022-08-17T18:43:17.959Z,29.69
2022-08-17T18:44:18.722Z,29.7
2022-08-17T18:45:22.225Z,29.36
2022-08-17T18:46:28.072Z,29.33
2022-08-17T18:47:30.884Z,29.47
2022-08-17T18:48:32.954Z,29.42
2022-08-17T18:49:34.505Z,29.33
2022-08-17T18:50:35.244Z,29.44
2022-08-17T18:51:40.885Z,29.48
2022-08-17T18:52:44.144Z,29.37
2022-08-17T18:53:44.852Z,29.41
2022-08-17T18:54:45.540Z,29.37
2022-08-17T18:55:46.226Z,29.17
2022-08-17T18:56:50.070Z,29
2022-08-17T18:57:50.995Z,29
2022-08-17T18:58:52.476Z,29.13
2022-08-17T18:59:55.455Z,29.16
2022-08-17T19:00:56.175Z,29.11
2022-08-17T19:01:58.854Z,29.13
2022-08-17T19:03:16.674Z,28.92
2022-08-17T19:04:17.683Z,28.9
2022-08-17T19:05:20.763Z,29.03
2022-08-17T19:06:21.462Z,29.02
2022-08-17T19:07:22.180Z,28.94
2022-08-17T19:08:22.875Z,29.02
2022-08-17T19:09:23.596Z,29
2022-08-17T19:10:24.324Z,29.05
2022-08-17T19:11:25.043Z,28.66
2022-08-17T19:12:27.259Z,28.62
2022-08-17T19:13:28.389Z,28.64
2022-08-17T19:14:29.410Z,28.65
2022-08-17T19:15:30.131Z,28.66
2022-08-17T19:16:30.861Z,28.59
2022-08-17T19:17:31.567Z,28.58
2022-08-17T19:18:32.278Z,28.57
2022-08-17T19:19:32.970Z,28.37
2022-08-17T19:20:33.688Z,28.47
2022-08-17T19:21:37.154Z,28.6
2022-08-17T19:22:37.908Z,28.51
2022-08-17T19:23:38.661Z,28.51
2022-08-17T19:25:02.597Z,28.66
2022-08-17T19:26:17.419Z,28.25
2022-08-17T19:27:58.471Z,28.17
2022-08-17T19:29:00.357Z,28.04
2022-08-17T19:30:07.095Z,28.04
2022-08-17T19:31:09.489Z,27.72
2022-08-17T19:32:10.359Z,27.86
2022-08-17T19:33:11.481Z,27.69
2022-08-17T19:34:13.283Z,27.75
2022-08-17T19:35:17.469Z,27.56
2022-08-17T19:36:18.651Z,27.4
2022-08-17T19:37:19.454Z,27.4
2022-08-17T19:38:20.254Z,27.44
2022-08-17T19:39:21.142Z,27.45
2022-08-17T19:40:42.087Z,27.46
2022-08-17T19:41:55.483Z,27.43
2022-08-17T19:42:56.242Z,27.59
2022-08-17T19:43:57.182Z,27.67
2022-08-17T19:44:57.882Z,27.82
2022-08-17T19:45:58.587Z,27.86
2022-08-17T19:46:59.457Z,27.89
2022-08-17T19:48:03.216Z,27.88
2022-08-17T19:49:04.828Z,27.91
2022-08-17T19:50:05.551Z,27.94
2022-08-17T19:51:06.349Z,27.87
2022-08-17T19:52:07.499Z,27.79
2022-08-17T19:53:09.853Z,27.81
2022-08-17T19:54:10.601Z,27.76
2022-08-17T19:55:11.304Z,27.68
2022-08-17T19:56:12.051Z,27.71
2022-08-17T19:57:12.802Z,27.7
2022-08-17T19:58:17.785Z,27.86
2022-08-17T19:59:19.720Z,27.82
2022-08-17T20:00:20.444Z,27.64
2022-08-17T20:01:21.377Z,27.6
2022-08-17T20:02:22.602Z,27.66
2022-08-17T20:03:23.428Z,27.72
2022-08-17T20:04:24.232Z,27.74
2022-08-17T20:05:44.396Z,27.92
2022-08-17T20:07:14.994Z,28.04
2022-08-17T20:08:15.727Z,28.15
2022-08-17T20:09:16.468Z,28.1
2022-08-17T20:10:19.272Z,28.3
2022-08-17T20:11:19.972Z,28.44
2022-08-17T20:12:20.702Z,28.71
2022-08-17T20:13:33.067Z,29.01
2022-08-17T20:14:34.875Z,28.97
2022-08-17T20:15:35.778Z,28.89
2022-08-17T20:16:36.498Z,28.86
2022-08-17T20:17:37.201Z,28.73
2022-08-17T20:18:37.914Z,28.68
2022-08-17T20:19:48.549Z,28.66
2022-08-17T20:20:49.249Z,28.69
2022-08-17T20:21:55.289Z,28.48
2022-08-17T20:22:56.020Z,28.52
2022-08-17T20:23:56.720Z,28.41
2022-08-17T20:24:57.421Z,28.33
2022-08-17T20:25:58.138Z,28.38
2022-08-17T20:26:59.403Z,28.23
2022-08-17T20:28:05.681Z,28.27
2022-08-17T20:29:07.846Z,28.34
2022-08-17T20:30:08.612Z,28.28
2022-08-17T20:31:09.374Z,28.16